Time;durP1;ratioP1;P1;durP2;ratioP2;P2;SDS_P1;SDS_P2;PMS_P1;PMS_P2;Temp;Humidity;BMP_temperature;BMP_pressure;BME280_temperature;BME280_humidity;BME280_pressure;Samples;Min_cycle;Max_cycle;Signal;HPM_P1;HPM_P2
2024/03/07 00:00:34;;;;;;;13.93;9.98;;;;;;;-146.25;100.00;52599.34;2075834;28;20049;-62
2024/03/07 00:01:37;;;;;;;14.52;10.05;;;;;;;-146.25;100.00;52542.56;2079025;28;33360;-64
2024/03/07 00:02:38;;;;;;;13.90;10.57;;;;;;;-146.25;100.00;52599.34;2088144;28;35616;-62
2024/03/07 00:03:44;;;;;;;13.70;9.75;;;;;;;-146.25;100.00;52599.34;2088497;28;20933;-62
2024/03/07 00:04:46;;;;;;;12.73;9.80;;;;;;;-146.25;100.00;52595.28;2087793;28;39444;-63
2024/03/07 00:05:48;;;;;;;19.23;10.23;;;;;;;-146.25;100.00;52583.13;2087119;28;37079;-63
2024/03/07 00:06:50;;;;;;;14.85;10.18;;;;;;;-146.25;100.00;52595.28;2088201;28;20481;-62
2024/03/07 00:07:52;;;;;;;15.82;10.40;;;;;;;-146.25;100.00;52556.75;2087832;28;38697;-61
2024/03/07 00:08:56;;;;;;;14.68;10.10;;;;;;;-146.25;100.00;52568.94;2079253;28;34646;-64
2024/03/07 00:09:58;;;;;;;13.68;10.00;;;;;;;-146.25;100.00;52609.50;2080990;28;20875;-64
2024/03/07 00:11:00;;;;;;;13.30;9.35;;;;;;;-146.25;100.00;52611.50;2096717;28;36564;-65
2024/03/07 00:12:04;;;;;;;12.45;9.77;;;;;;;-146.25;100.00;52599.34;2097206;28;20052;-64
2024/03/07 00:13:05;;;;;;;12.98;10.05;;;;;;;-146.25;100.00;52617.59;2096282;28;34673;-64
2024/03/07 00:14:07;;;;;;;15.13;10.27;;;;;;;-146.25;100.00;52581.09;2095808;28;34051;-62
2024/03/07 00:15:14;;;;;;;16.35;10.20;;;;;;;-146.25;100.00;52595.28;2095243;28;32798;-63
2024/03/07 00:16:18;;;;;;;13.27;9.13;;;;;;;-146.25;100.00;52601.38;2094876;28;34234;-63
2024/03/07 00:17:20;;;;;;;13.77;9.65;;;;;;;-146.25;100.00;52593.25;2096163;28;32063;-62
2024/03/07 00:18:22;;;;;;;13.52;10.32;;;;;;;-146.25;100.00;52573.00;2095931;28;34194;-62
2024/03/07 00:19:26;;;;;;;15.90;10.68;;;;;;;-146.25;100.00;52585.16;2096258;28;38726;-62
2024/03/07 00:20:28;;;;;;;14.27;9.98;;;;;;;-146.25;100.00;52583.13;2096006;28;33506;-63
2024/03/07 00:21:30;;;;;;;14.25;10.32;;;;;;;-146.25;100.00;52599.34;2096295;28;37198;-63
2024/03/07 00:22:32;;;;;;;12.90;10.10;;;;;;;-146.25;100.00;52556.75;2095964;28;32589;-62
2024/03/07 00:23:34;;;;;;;13.98;9.45;;;;;;;-146.25;100.00;52583.13;2096496;28;34340;-64
2024/03/07 00:24:38;;;;;;;14.30;9.77;;;;;;;-146.25;100.00;52591.25;2095883;28;36043;-62
2024/03/07 00:25:39;;;;;;;17.13;10.10;;;;;;;-146.25;100.00;52589.22;2096306;28;33325;-62
2024/03/07 00:26:41;;;;;;;12.85;9.73;;;;;;;-146.25;100.00;52597.31;2089886;28;37006;-63
2024/03/07 00:27:45;;;;;;;13.55;9.70;;;;;;;-146.25;100.00;52585.16;2087877;28;31848;-63
2024/03/07 00:28:47;;;;;;;13.95;9.73;;;;;;;-146.25;100.00;52566.91;2087277;28;34320;-63
2024/03/07 00:29:56;;;;;;;15.45;10.05;;;;;;;-146.25;100.00;52591.25;2087948;28;37587;-63
2024/03/07 00:31:01;;;;;;;13.20;9.40;;;;;;;-146.25;100.00;52587.19;2096005;28;20883;-63
2024/03/07 00:32:03;;;;;;;13.15;10.32;;;;;;;-146.25;100.00;52593.25;2096145;28;39399;-64
2024/03/07 00:33:05;;;;;;;14.00;9.82;;;;;;;-146.25;100.00;52550.69;2089182;28;25790;-63
2024/03/07 00:34:06;;;;;;;14.35;9.60;;;;;;;-146.25;100.00;52601.38;2088323;28;34699;-62
2024/03/07 00:35:13;;;;;;;13.23;9.85;;;;;;;-146.25;100.00;52599.34;2087461;28;35597;-62
2024/03/07 00:36:15;;;;;;;13.70;10.18;;;;;;;-146.25;100.00;52595.28;2088608;28;20046;-63
2024/03/07 00:37:17;;;;;;;13.38;9.88;;;;;;;-146.25;100.00;52599.34;2078640;28;34295;-63
2024/03/07 00:38:19;;;;;;;14.13;9.98;;;;;;;-146.25;100.00;52585.16;2079279;28;34957;-62
2024/03/07 00:39:21;;;;;;;14.48;10.55;;;;;;;-146.25;100.00;52587.19;2088164;28;20890;-63
2024/03/07 00:40:25;;;;;;;15.10;10.13;;;;;;;-146.25;100.00;52583.13;2087936;28;20038;-63
2024/03/07 00:41:27;;;;;;;14.82;10.15;;;;;;;-146.25;100.00;52593.25;2086783;28;36273;-62
2024/03/07 00:42:31;;;;;;;14.00;10.23;;;;;;;-146.25;100.00;52532.44;2088058;28;34914;-63
2024/03/07 00:43:33;;;;;;;15.07;10.43;;;;;;;-146.25;100.00;52589.22;2078464;28;37908;-63
2024/03/07 00:44:34;;;;;;;14.07;10.30;;;;;;;-146.25;100.00;52591.25;2080054;28;20105;-63
2024/03/07 00:45:37;;;;;;;12.82;9.80;;;;;;;-146.25;100.00;52593.25;2086986;28;39858;-63
2024/03/07 00:46:39;;;;;;;13.60;10.13;;;;;;;-146.25;100.00;52575.00;2087047;28;36367;-63
2024/03/07 00:47:40;;;;;;;13.00;9.70;;;;;;;-146.25;100.00;52564.88;2087640;28;30275;-63
2024/03/07 00:48:47;;;;;;;13.10;10.07;;;;;;;-146.25;100.00;52599.34;2087502;28;39397;-63
2024/03/07 00:49:49;;;;;;;13.40;9.93;;;;;;;-146.25;100.00;52597.31;2088199;28;21143;-63
2024/03/07 00:50:51;;;;;;;14.40;10.95;;;;;;;-146.25;100.00;52619.63;2087158;28;37512;-62
2024/03/07 00:51:53;;;;;;;14.82;10.40;;;;;;;-146.25;100.00;52583.13;2087745;28;38148;-63
2024/03/07 00:52:55;;;;;;;15.73;11.00;;;;;;;-146.25;100.00;52595.28;2089235;28;32876;-63
2024/03/07 00:53:57;;;;;;;13.75;10.73;;;;;;;-146.25;100.00;52558.78;2088542;28;37455;-64
2024/03/07 00:54:59;;;;;;;16.05;11.02;;;;;;;-146.25;100.00;52595.28;2089587;28;27260;-63
2024/03/07 00:56:02;;;;;;;15.23;11.10;;;;;;;-146.25;100.00;52540.53;2088960;28;33575;-64
2024/03/07 00:57:04;;;;;;;15.05;10.90;;;;;;;-146.25;100.00;52556.75;2089641;28;36530;-63
2024/03/07 00:58:08;;;;;;;14.98;10.85;;;;;;;-146.25;100.00;52560.81;2089109;28;33586;-64
2024/03/07 00:59:09;;;;;;;15.68;11.73;;;;;;;-146.25;100.00;52560.81;2089293;28;34608;-63
2024/03/07 01:00:17;;;;;;;17.02;11.98;;;;;;;-146.25;100.00;52635.84;2089921;28;33112;-64
2024/03/07 01:01:21;;;;;;;16.27;11.77;;;;;;;-146.25;100.00;52585.16;2097441;28;34379;-63
2024/03/07 01:02:23;;;;;;;15.65;11.18;;;;;;;-146.25;100.00;52564.88;2097918;28;20867;-62
2024/03/07 01:03:25;;;;;;;20.17;11.52;;;;;;;-146.25;100.00;52570.97;2097823;28;33350;-63
2024/03/07 01:04:31;;;;;;;17.25;11.30;;;;;;;-146.25;100.00;52611.50;2097279;28;34236;-64
2024/03/07 01:05:32;;;;;;;14.75;11.85;;;;;;;-146.25;100.00;52603.41;2097465;28;34264;-63
2024/03/07 01:06:40;;;;;;;16.02;11.82;;;;;;;-146.25;100.00;52601.38;2097104;28;36583;-62
2024/03/07 01:07:43;;;;;;;18.52;10.85;;;;;;;-146.25;100.00;52558.78;2098109;28;20053;-63
2024/03/07 01:08:47;;;;;;;15.75;11.95;;;;;;;-146.25;100.00;52607.47;2097197;28;35281;-63
2024/03/07 01:09:49;;;;;;;16.45;11.75;;;;;;;-146.25;100.00;52566.91;2097456;28;33711;-62
2024/03/07 01:10:53;;;;;;;17.02;12.27;;;;;;;-146.25;100.00;52579.06;2097829;28;20025;-63
2024/03/07 01:11:55;;;;;;;16.63;12.30;;;;;;;-146.25;100.00;52583.13;2097431;28;33139;-63
2024/03/07 01:13:01;;;;;;;18.33;12.80;;;;;;;-146.25;100.00;52550.69;2096970;28;33817;-63
2024/03/07 01:14:02;;;;;;;15.85;12.05;;;;;;;-146.25;100.00;52573.00;2097306;28;33535;-63
2024/03/07 01:15:05;;;;;;;16.80;12.85;;;;;;;-146.25;100.00;52570.97;2096542;28;36492;-64
2024/03/07 01:16:07;;;;;;;16.95;13.38;;;;;;;-146.25;100.00;52581.09;2097265;28;20167;-63
2024/03/07 01:17:09;;;;;;;19.73;12.80;;;;;;;-146.25;100.00;52619.63;2087892;28;36070;-63
2024/03/07 01:18:12;;;;;;;21.42;13.05;;;;;;;-146.25;100.00;52577.03;2088793;28;32060;-63
2024/03/07 01:19:14;;;;;;;17.40;13.13;;;;;;;-146.25;100.00;52575.00;2098168;28;20846;-64
2024/03/07 01:20:19;;;;;;;18.90;13.55;;;;;;;-146.25;100.00;52611.50;2097444;28;36007;-63
2024/03/07 01:21:21;;;;;;;17.27;13.25;;;;;;;-146.25;100.00;52601.38;2096754;28;37208;-63
2024/03/07 01:22:23;;;;;;;16.65;13.27;;;;;;;-146.25;100.00;52587.19;2097986;28;20038;-63
2024/03/07 01:23:24;;;;;;;19.00;13.95;;;;;;;-146.25;100.00;52550.69;2097239;28;35487;-63
2024/03/07 01:24:26;;;;;;;17.90;13.27;;;;;;;-146.25;100.00;52615.56;2097255;28;36479;-63
2024/03/07 01:25:28;;;;;;;19.83;13.75;;;;;;;-146.25;100.00;52570.97;2096806;28;33727;-63
2024/03/07 01:26:30;;;;;;;18.77;14.05;;;;;;;-146.25;100.00;52591.25;2097379;28;36634;-63
2024/03/07 01:27:32;;;;;;;16.98;13.48;;;;;;;-146.25;100.00;52575.00;2097055;28;33700;-63
2024/03/07 01:28:34;;;;;;;19.92;14.13;;;;;;;-146.25;100.00;52605.44;2097304;28;37548;-63
2024/03/07 01:29:36;;;;;;;19.52;13.65;;;;;;;-146.25;100.00;52577.03;2097222;28;30438;-63
2024/03/07 01:30:38;;;;;;;18.13;14.45;;;;;;;-146.25;100.00;52558.78;2097142;28;35182;-63
2024/03/07 01:31:40;;;;;;;17.30;14.05;;;;;;;-146.25;100.00;52568.94;2097234;28;36227;-64
2024/03/07 01:32:41;;;;;;;20.02;14.00;;;;;;;-146.25;100.00;52579.06;2097193;28;34740;-63
2024/03/07 01:33:44;;;;;;;19.15;14.80;;;;;;;-146.25;100.00;52581.09;2096670;28;36506;-63
2024/03/07 01:34:45;;;;;;;19.00;14.40;;;;;;;-146.25;100.00;52599.34;2097317;28;35105;-63
2024/03/07 01:35:47;;;;;;;18.58;14.77;;;;;;;-146.25;100.00;52583.13;2097174;28;32843;-64
2024/03/07 01:36:49;;;;;;;20.98;15.80;;;;;;;-146.25;100.00;52601.38;2097408;28;35520;-63
2024/03/07 01:37:51;;;;;;;19.95;15.20;;;;;;;-146.25;100.00;52583.13;2097017;28;35669;-63
2024/03/07 01:38:53;;;;;;;18.83;14.73;;;;;;;-146.25;100.00;52581.09;2097091;28;35104;-64
2024/03/07 01:39:55;;;;;;;21.08;14.95;;;;;;;-146.25;100.00;52585.16;2097146;28;32430;-63
2024/03/07 01:40:56;;;;;;;20.05;15.68;;;;;;;-146.25;100.00;52579.06;2097671;28;35773;-63
2024/03/07 01:41:58;;;;;;;18.65;14.63;;;;;;;-146.25;100.00;52589.22;2096614;28;35488;-63
2024/03/07 01:43:02;;;;;;;21.45;15.23;;;;;;;-146.25;100.00;52575.00;2097368;28;36863;-64
2024/03/07 01:44:04;;;;;;;19.13;15.32;;;;;;;-146.25;100.00;52550.69;2096896;28;34171;-63
2024/03/07 01:45:09;;;;;;;20.42;16.25;;;;;;;-146.25;100.00;52595.28;2097338;28;32021;-63
2024/03/07 01:46:12;;;;;;;21.42;15.65;;;;;;;-146.25;100.00;52575.00;2096576;28;35091;-63
2024/03/07 01:47:15;;;;;;;23.05;15.82;;;;;;;-146.25;100.00;52560.81;2088813;28;20053;-63
2024/03/07 01:48:26;;;;;;;20.65;15.35;;;;;;;-146.25;100.00;52570.97;2088293;28;33119;-63
2024/03/07 01:49:29;;;;;;;22.35;15.85;;;;;;;-146.25;100.00;52575.00;2097137;28;35072;-63
2024/03/07 01:50:30;;;;;;;21.80;16.23;;;;;;;-146.25;100.00;52587.19;2088139;28;32526;-63
2024/03/07 01:51:34;;;;;;;21.48;16.08;;;;;;;-146.25;100.00;52568.94;2088410;28;37708;-64
2024/03/07 01:52:39;;;;;;;22.00;15.98;;;;;;;-146.25;100.00;52581.09;2097453;28;20081;-63
2024/03/07 01:53:43;;;;;;;24.15;17.63;;;;;;;-146.25;100.00;52595.28;2088208;28;35324;-64
2024/03/07 01:54:46;;;;;;;22.25;16.45;;;;;;;-146.25;100.00;52597.31;2089125;28;33597;-63
2024/03/07 01:55:50;;;;;;;23.35;16.60;;;;;;;-146.25;100.00;52570.97;2097839;28;21004;-64
2024/03/07 01:56:53;;;;;;;20.75;16.52;;;;;;;-146.25;100.00;52617.59;2088173;28;20049;-63
2024/03/07 01:57:59;;;;;;;20.88;16.27;;;;;;;-146.25;100.00;52587.19;2088260;28;34256;-63
2024/03/07 01:59:02;;;;;;;22.55;16.08;;;;;;;-146.25;100.00;52585.16;2088430;28;33509;-63
2024/03/07 02:00:06;;;;;;;25.75;17.08;;;;;;;-146.25;100.00;52615.56;2088695;28;34074;-64
2024/03/07 02:01:09;;;;;;;22.13;16.80;;;;;;;-146.25;100.00;52593.25;2097613;28;20186;-63
2024/03/07 02:02:11;;;;;;;22.73;16.83;;;;;;;-146.25;100.00;52579.06;2096823;28;33540;-64
2024/03/07 02:03:13;;;;;;;24.30;18.20;;;;;;;-146.25;100.00;52617.59;2096408;28;35368;-63
2024/03/07 02:04:15;;;;;;;23.88;17.40;;;;;;;-146.25;100.00;52560.81;2097265;28;35918;-63
2024/03/07 02:05:20;;;;;;;22.90;18.02;;;;;;;-146.25;100.00;52575.00;2096955;28;34618;-63
2024/03/07 02:06:25;;;;;;;24.35;17.27;;;;;;;-146.25;100.00;52615.56;2096671;28;34907;-63
2024/03/07 02:07:27;;;;;;;25.00;18.05;;;;;;;-146.25;100.00;52544.59;2088435;28;35480;-63
2024/03/07 02:08:31;;;;;;;26.08;18.60;;;;;;;-146.25;100.00;52587.19;2088765;28;34758;-63
2024/03/07 02:09:35;;;;;;;25.02;17.75;;;;;;;-146.25;100.00;52575.00;2096998;28;36227;-63
2024/03/07 02:10:38;;;;;;;26.77;17.85;;;;;;;-146.25;100.00;52601.38;2097332;28;20972;-63
2024/03/07 02:11:39;;;;;;;24.60;18.65;;;;;;;-146.25;100.00;52558.78;2097224;28;37204;-63
2024/03/07 02:12:42;;;;;;;26.92;18.70;;;;;;;-146.25;100.00;52595.28;2097575;28;21050;-63
2024/03/07 02:13:43;;;;;;;26.88;18.60;;;;;;;-146.25;100.00;52597.31;2087912;28;35143;-64
2024/03/07 02:14:45;;;;;;;25.80;19.15;;;;;;;-146.25;100.00;52593.25;2088179;28;39672;-63
2024/03/07 02:15:47;;;;;;;27.33;18.85;;;;;;;-146.25;100.00;52556.75;2097576;28;20036;-63
2024/03/07 02:16:49;;;;;;;26.42;19.40;;;;;;;-146.25;100.00;52605.44;2096643;28;37826;-63
2024/03/07 02:17:53;;;;;;;26.73;18.83;;;;;;;-146.25;100.00;52601.38;2097365;28;30846;-64
2024/03/07 02:18:57;;;;;;;26.70;19.88;;;;;;;-146.25;100.00;52581.09;2097252;28;20040;-63
2024/03/07 02:20:04;;;;;;;30.05;20.40;;;;;;;-146.25;100.00;52599.34;2087928;28;38569;-63
2024/03/07 02:21:09;;;;;;;28.63;20.63;;;;;;;-146.25;100.00;52583.13;2089096;28;32075;-62
2024/03/07 02:22:14;;;;;;;26.08;19.73;;;;;;;-146.25;100.00;52595.28;2097068;28;34522;-64
2024/03/07 02:23:16;;;;;;;29.40;20.10;;;;;;;-146.25;100.00;52583.13;2096697;28;35960;-63
2024/03/07 02:24:17;;;;;;;30.80;20.40;;;;;;;-146.25;100.00;52601.38;2096949;28;30616;-64
2024/03/07 02:25:19;;;;;;;30.80;21.38;;;;;;;-146.25;100.00;52605.44;2097384;28;20117;-63
2024/03/07 02:26:21;;;;;;;31.02;20.85;;;;;;;-146.25;100.00;52601.38;2097068;28;37217;-63
2024/03/07 02:27:25;;;;;;;29.92;21.52;;;;;;;-146.25;100.00;52591.25;2097230;28;20909;-62
2024/03/07 02:28:27;;;;;;;27.88;20.88;;;;;;;-146.25;100.00;52587.19;2088198;28;33681;-63
2024/03/07 02:29:30;;;;;;;30.52;21.27;;;;;;;-146.25;100.00;52550.69;2087737;28;35396;-63
2024/03/07 02:30:34;;;;;;;33.15;21.30;;;;;;;-146.25;100.00;52587.19;2088380;28;20034;-64
2024/03/07 02:31:36;;;;;;;32.78;22.70;;;;;;;-146.25;100.00;52605.44;2088177;28;34404;-63
2024/03/07 02:32:39;;;;;;;35.00;22.90;;;;;;;-146.25;100.00;52607.47;2096530;28;36663;-63
2024/03/07 02:33:41;;;;;;;33.90;21.83;;;;;;;-146.25;100.00;52566.91;2096769;28;35836;-63
2024/03/07 02:34:46;;;;;;;35.15;22.42;;;;;;;-146.25;100.00;52589.22;2096511;28;34800;-64
2024/03/07 02:35:49;;;;;;;31.15;21.85;;;;;;;-146.25;100.00;52579.06;2087533;28;38906;-63
2024/03/07 02:36:51;;;;;;;35.08;23.38;;;;;;;-146.25;100.00;52587.19;2088804;28;20030;-63
2024/03/07 02:37:53;;;;;;;35.03;22.77;;;;;;;-146.25;100.00;52601.38;2096700;28;31457;-63
2024/03/07 02:38:55;;;;;;;33.67;22.80;;;;;;;-146.25;100.00;52560.81;2097115;28;33667;-63
2024/03/07 02:39:57;;;;;;;32.72;22.90;;;;;;;-146.25;100.00;52585.16;2096609;28;32489;-64
2024/03/07 02:40:59;;;;;;;33.00;23.38;;;;;;;-146.25;100.00;52599.34;2096745;28;35278;-62
2024/03/07 02:42:01;;;;;;;36.20;24.10;;;;;;;-146.25;100.00;52581.09;2096687;28;36565;-63
2024/03/07 02:43:04;;;;;;;38.22;24.52;;;;;;;-146.25;100.00;52579.06;2097458;28;20092;-63
2024/03/07 02:44:06;;;;;;;35.50;24.20;;;;;;;-146.25;100.00;52597.31;2096460;28;36205;-63
2024/03/07 02:45:10;;;;;;;37.45;25.65;;;;;;;-146.25;100.00;52558.78;2097041;28;31674;-63
2024/03/07 02:46:12;;;;;;;34.83;23.85;;;;;;;-146.25;100.00;52633.81;2096608;28;20044;-63
2024/03/07 02:47:13;;;;;;;37.00;25.25;;;;;;;-146.25;100.00;52566.91;2096734;28;35703;-63
2024/03/07 02:48:15;;;;;;;38.83;24.83;;;;;;;-146.25;100.00;52575.00;2097005;28;33016;-63
2024/03/07 02:49:21;;;;;;;38.33;25.15;;;;;;;-146.25;100.00;52564.88;2097326;28;20033;-63
2024/03/07 02:50:22;;;;;;;38.30;25.88;;;;;;;-146.25;100.00;52597.31;2097238;28;20037;-63
2024/03/07 02:51:24;;;;;;;42.58;27.38;;;;;;;-146.25;100.00;52591.25;2087952;28;37786;-63
2024/03/07 02:52:26;;;;;;;38.80;26.35;;;;;;;-146.25;100.00;52566.91;2087871;28;29184;-63
2024/03/07 02:53:28;;;;;;;40.45;26.98;;;;;;;-146.25;100.00;52583.13;2097159;28;20056;-62
2024/03/07 02:54:32;;;;;;;42.83;27.50;;;;;;;-146.25;100.00;52583.13;2096532;28;35621;-64
2024/03/07 02:55:36;;;;;;;39.35;26.13;;;;;;;-146.25;100.00;52605.44;2097232;28;25249;-62
2024/03/07 02:56:38;;;;;;;41.10;27.10;;;;;;;-146.25;100.00;52587.19;2095915;28;35494;-63
2024/03/07 02:57:40;;;;;;;40.40;26.90;;;;;;;-146.25;100.00;52603.41;2097100;28;34135;-62
2024/03/07 02:58:42;;;;;;;39.75;26.73;;;;;;;-146.25;100.00;52591.25;2096375;28;33564;-62
2024/03/07 02:59:46;;;;;;;38.65;26.65;;;;;;;-146.25;100.00;52627.75;2096502;28;36884;-63
2024/03/07 03:00:49;;;;;;;43.33;27.88;;;;;;;-146.25;100.00;52593.25;2089838;28;33292;-63
2024/03/07 03:01:51;;;;;;;45.55;28.05;;;;;;;-146.25;100.00;52593.25;2089071;28;20042;-63
2024/03/07 03:02:53;;;;;;;43.33;28.40;;;;;;;-146.25;100.00;52585.16;2088506;28;20930;-63
2024/03/07 03:03:57;;;;;;;42.58;28.20;;;;;;;-146.25;100.00;52607.47;2088520;28;36780;-65
2024/03/07 03:04:59;;;;;;;43.90;28.90;;;;;;;-146.25;100.00;52581.09;2087534;28;36952;-63
2024/03/07 03:06:03;;;;;;;48.03;29.92;;;;;;;-146.25;100.00;52611.50;2088535;28;34012;-63
2024/03/07 03:07:06;;;;;;;48.83;30.05;;;;;;;-146.25;100.00;52605.44;2088890;28;20044;-63
2024/03/07 03:08:08;;;;;;;47.35;30.13;;;;;;;-146.25;100.00;52564.88;2088454;28;36066;-63
2024/03/07 03:09:13;;;;;;;48.85;31.30;;;;;;;-146.25;100.00;52579.06;2088019;28;33111;-63
2024/03/07 03:10:15;;;;;;;47.42;29.58;;;;;;;-146.25;100.00;52577.03;2079394;28;39549;-62
2024/03/07 03:11:17;;;;;;;51.22;31.77;;;;;;;-146.25;100.00;52601.38;2079950;28;34242;-63
2024/03/07 03:12:25;;;;;;;50.15;30.30;;;;;;;-146.25;100.00;52611.50;2089123;28;20049;-63
2024/03/07 03:13:27;;;;;;;48.97;30.83;;;;;;;-146.25;100.00;52573.00;2088589;28;20037;-63
2024/03/07 03:14:36;;;;;;;47.28;31.42;;;;;;;-146.25;100.00;52589.22;2088196;28;22594;-63
2024/03/07 03:15:38;;;;;;;48.92;30.95;;;;;;;-146.25;100.00;52562.84;2088045;28;20834;-63
2024/03/07 03:16:45;;;;;;;46.17;30.25;;;;;;;-146.25;100.00;52570.97;2088097;28;35901;-63
2024/03/07 03:17:48;;;;;;;46.83;30.45;;;;;;;-146.25;100.00;52566.91;2088043;28;36389;-64
2024/03/07 03:18:54;;;;;;;47.50;29.90;;;;;;;-146.25;100.00;52532.44;2088238;28;35090;-62
2024/03/07 03:19:56;;;;;;;49.17;30.40;;;;;;;-146.25;100.00;52579.06;2088097;28;35694;-63
2024/03/07 03:20:58;;;;;;;49.72;30.13;;;;;;;-146.25;100.00;52605.44;2088056;28;34525;-63
2024/03/07 03:21:59;;;;;;;50.28;30.55;;;;;;;-146.25;100.00;52544.59;2088115;28;31170;-63
2024/03/07 03:23:05;;;;;;;51.35;29.90;;;;;;;-146.25;100.00;52595.28;2088255;28;35275;-64
2024/03/07 03:24:15;;;;;;;;;;;;;;;-146.25;100.00;52611.50;2088525;28;33749;-62
2024/03/07 03:25:17;;;;;;;50.35;28.65;;;;;;;-146.25;100.00;52570.97;2088046;28;34889;-63
2024/03/07 03:26:19;;;;;;;54.03;31.27;;;;;;;-146.25;100.00;52581.09;2087913;28;34254;-65
2024/03/07 03:27:22;;;;;;;57.50;32.65;;;;;;;-146.25;100.00;52575.00;2088629;28;32261;-64
2024/03/07 03:28:23;;;;;;;60.30;32.80;;;;;;;-146.25;100.00;52562.84;2078863;28;35996;-63
2024/03/07 03:29:28;;;;;;;59.05;32.47;;;;;;;-146.25;100.00;52562.84;2079480;28;33515;-63
2024/03/07 03:30:32;;;;;;;61.90;34.22;;;;;;;-146.25;100.00;52595.28;2079579;28;20085;-62
2024/03/07 03:31:35;;;;;;;69.05;35.28;;;;;;;-146.25;100.00;52560.81;2078914;28;35952;-63
2024/03/07 03:32:36;;;;;;;66.03;34.17;;;;;;;-146.25;100.00;52591.25;2087446;28;32991;-63
2024/03/07 03:33:38;;;;;;;72.40;37.35;;;;;;;-146.25;100.00;52583.13;2088460;28;36033;-64
2024/03/07 03:34:42;;;;;;;66.75;35.97;;;;;;;-146.25;100.00;52579.06;2087859;28;36817;-63
2024/03/07 03:35:44;;;;;;;67.18;35.97;;;;;;;-146.25;100.00;52595.28;2087909;28;31649;-64
2024/03/07 03:36:46;;;;;;;69.65;35.90;;;;;;;-146.25;100.00;52581.09;2088131;28;33638;-62
2024/03/07 03:37:48;;;;;;;71.47;36.83;;;;;;;-146.25;100.00;52575.00;2087242;28;35955;-63
2024/03/07 03:38:52;;;;;;;73.78;37.03;;;;;;;-146.25;100.00;52560.81;2087493;28;33152;-62
2024/03/07 03:39:54;;;;;;;95.90;37.55;;;;;;;-146.25;100.00;52550.69;2087890;28;31314;-64
2024/03/07 03:40:55;;;;;;;77.75;38.03;;;;;;;-146.25;100.00;52591.25;2088022;28;30791;-63
2024/03/07 03:41:57;;;;;;;87.80;36.40;;;;;;;-146.25;100.00;52570.97;2088275;28;34032;-62
2024/03/07 03:43:00;;;;;;;97.68;39.15;;;;;;;-146.25;100.00;52560.81;2087758;28;33198;-63
2024/03/07 03:44:03;;;;;;;77.63;37.22;;;;;;;-146.25;100.00;52564.88;2078949;28;33038;-63
2024/03/07 03:45:07;;;;;;;110.13;37.83;;;;;;;-146.25;100.00;52587.19;2079164;28;37817;-62
2024/03/07 03:46:11;;;;;;;135.25;37.92;;;;;;;-146.25;100.00;52534.47;2078779;28;32406;-62
2024/03/07 03:47:13;;;;;;;110.70;39.08;;;;;;;-146.25;100.00;52560.81;2079675;28;34862;-63
2024/03/07 03:48:15;;;;;;;151.18;39.08;;;;;;;-146.25;100.00;52556.75;2088598;28;20160;-63
2024/03/07 03:49:17;;;;;;;120.38;37.92;;;;;;;-146.25;100.00;52573.00;2087995;28;35279;-63
2024/03/07 03:50:19;;;;;;;126.35;39.70;;;;;;;-146.25;100.00;52550.69;2087440;28;35172;-63
2024/03/07 03:51:21;;;;;;;120.57;38.67;;;;;;;-146.25;100.00;52566.91;2088000;28;31508;-63
2024/03/07 03:52:23;;;;;;;122.97;41.15;;;;;;;-146.25;100.00;52540.53;2087790;28;37459;-63
2024/03/07 03:53:25;;;;;;;101.70;39.35;;;;;;;-146.25;100.00;52577.03;2088584;28;20159;-63
2024/03/07 03:54:28;;;;;;;127.03;41.95;;;;;;;-146.25;100.00;52534.47;2079300;28;32648;-63
2024/03/07 03:55:32;;;;;;;124.10;42.33;;;;;;;-146.25;100.00;52575.00;2079852;28;29804;-63
2024/03/07 03:56:33;;;;;;;107.25;43.63;;;;;;;-146.25;100.00;52536.50;2087909;28;34058;-63
2024/03/07 03:57:36;;;;;;;111.25;43.13;;;;;;;-146.25;100.00;52526.34;2087841;28;34798;-63
2024/03/07 03:58:40;;;;;;;110.38;43.70;;;;;;;-146.25;100.00;52556.75;2087825;28;33072;-63
2024/03/07 03:59:44;;;;;;;111.97;43.03;;;;;;;-146.25;100.00;52556.75;2087580;28;36581;-63
2024/03/07 04:00:49;;;;;;;129.52;42.22;;;;;;;-146.25;100.00;52587.19;2079855;28;20180;-63
2024/03/07 04:01:51;;;;;;;147.82;41.22;;;;;;;-146.25;100.00;52554.75;2079508;28;33199;-62
2024/03/07 04:02:55;;;;;;;118.70;37.28;;;;;;;-146.25;100.00;52542.56;2088019;28;20160;-63
2024/03/07 04:04:00;;;;;;;173.60;38.22;;;;;;;-146.25;100.00;52536.50;2087243;28;33785;-62
2024/03/07 04:05:02;;;;;;;148.15;39.63;;;;;;;-146.25;100.00;52548.66;2087869;28;31548;-62
2024/03/07 04:06:04;;;;;;;129.07;39.92;;;;;;;-146.25;100.00;52566.91;2087981;28;29312;-63
2024/03/07 04:07:08;;;;;;;183.48;40.38;;;;;;;-146.25;100.00;52546.63;2087745;28;37069;-63
2024/03/07 04:08:10;;;;;;;186.05;40.53;;;;;;;-146.25;100.00;52556.75;2087987;28;33035;-63
2024/03/07 04:09:15;;;;;;;172.50;43.53;;;;;;;-146.25;100.00;52552.72;2087710;28;33460;-62
2024/03/07 04:10:17;;;;;;;148.02;41.33;;;;;;;-146.25;100.00;52542.56;2087757;28;36651;-63
2024/03/07 04:11:19;;;;;;;176.50;42.20;;;;;;;-146.25;100.00;52579.06;2087915;28;31590;-63
2024/03/07 04:12:21;;;;;;;131.95;41.53;;;;;;;-146.25;100.00;52550.69;2087790;28;36778;-62
2024/03/07 04:13:23;;;;;;;122.43;42.75;;;;;;;-146.25;100.00;52526.34;2087898;28;32624;-63
2024/03/07 04:14:26;;;;;;;171.75;41.25;;;;;;;-146.25;100.00;52524.31;2087979;28;33192;-63
2024/03/07 04:15:30;;;;;;;219.40;42.13;;;;;;;-146.25;100.00;52558.78;2087696;28;36744;-62
2024/03/07 04:16:34;;;;;;;151.05;41.53;;;;;;;-146.25;100.00;52550.69;2088542;28;20152;-62
2024/03/07 04:17:37;;;;;;;137.27;40.72;;;;;;;-146.25;100.00;52568.94;2087381;28;37242;-62
2024/03/07 04:18:40;;;;;;;217.60;42.17;;;;;;;-146.25;100.00;52548.66;2088822;28;20943;-64
2024/03/07 04:19:43;;;;;;;263.65;43.13;;;;;;;-146.25;100.00;52546.63;2087827;28;30008;-64
2024/03/07 04:20:45;;;;;;;146.85;41.22;;;;;;;-146.25;100.00;52573.00;2088029;28;32990;-62
2024/03/07 04:21:46;;;;;;;143.40;41.53;;;;;;;-146.25;100.00;52536.50;2078840;28;30224;-62
2024/03/07 04:22:49;;;;;;;197.65;42.25;;;;;;;-146.25;100.00;52564.88;2078956;28;37444;-64
2024/03/07 04:23:51;;;;;;;157.40;41.40;;;;;;;-146.25;100.00;52546.63;2087874;28;36177;-64
2024/03/07 04:24:55;;;;;;;168.68;40.08;;;;;;;-146.25;100.00;52548.66;2087495;28;35830;-64
2024/03/07 04:25:56;;;;;;;172.60;44.13;;;;;;;-146.25;100.00;52562.84;2087272;28;32057;-63
2024/03/07 04:27:05;;;;;;;180.35;42.80;;;;;;;-146.25;100.00;52583.13;2089700;28;33658;-64
2024/03/07 04:28:07;;;;;;;173.00;40.85;;;;;;;-146.25;100.00;52518.25;2090404;28;35440;-64
2024/03/07 04:29:10;;;;;;;156.75;43.75;;;;;;;-146.25;100.00;52593.25;2090506;28;32962;-62
2024/03/07 04:30:12;;;;;;;160.00;43.55;;;;;;;-146.25;100.00;52544.59;2091484;28;33552;-63
2024/03/07 04:31:14;;;;;;;130.70;42.28;;;;;;;-146.25;100.00;52575.00;2098258;28;36439;-62
2024/03/07 04:32:17;;;;;;;157.27;44.28;;;;;;;-146.25;100.00;52550.69;2098973;28;31529;-62
2024/03/07 04:33:19;;;;;;;127.65;44.13;;;;;;;-146.25;100.00;52556.75;2098605;28;34798;-65
2024/03/07 04:34:21;;;;;;;123.80;43.42;;;;;;;-146.25;100.00;52566.91;2098704;28;37936;-62
2024/03/07 04:35:25;;;;;;;131.75;43.58;;;;;;;-146.25;100.00;52581.09;2099062;28;34629;-63
2024/03/07 04:36:28;;;;;;;135.35;42.65;;;;;;;-146.25;100.00;52558.78;2098477;28;34505;-62
2024/03/07 04:37:30;;;;;;;130.23;40.00;;;;;;;-146.25;100.00;52593.25;2098845;28;32712;-63
2024/03/07 04:38:32;;;;;;;158.20;43.33;;;;;;;-146.25;100.00;52550.69;2098503;28;36148;-62
2024/03/07 04:39:34;;;;;;;121.47;40.08;;;;;;;-146.25;100.00;52542.56;2099017;28;34030;-62